createdAt,value
2023-03-06T00:00:53.272Z,98.46
2023-03-06T00:03:23.775Z,98.65
2023-03-06T00:05:55.795Z,98.29
2023-03-06T00:08:25.911Z,98.44
2023-03-06T00:10:56.464Z,97.98
2023-03-06T00:13:30.346Z,97.40
2023-03-06T00:16:02.316Z,96.82
2023-03-06T00:18:31.979Z,96.22
2023-03-06T00:21:02.224Z,95.51
2023-03-06T00:23:31.958Z,96.01
2023-03-06T00:26:01.969Z,96.18
2023-03-06T00:28:33.088Z,95.41
2023-03-06T00:31:05.576Z,95.64
2023-03-06T00:33:35.638Z,96.28
2023-03-06T00:36:06.351Z,96.04
2023-03-06T00:38:37.415Z,96.96
2023-03-06T00:41:11.104Z,97.76
2023-03-06T00:43:41.125Z,97.62
2023-03-06T00:46:12.598Z,97.49
2023-03-06T00:48:42.412Z,97.68
2023-03-06T00:51:14.009Z,97.51
2023-03-06T00:53:43.876Z,97.48
2023-03-06T00:56:13.907Z,98.11
2023-03-06T00:58:44.447Z,98.31
2023-03-06T01:01:16.601Z,98.00
2023-03-06T01:03:46.513Z,97.71
2023-03-06T01:06:17.793Z,96.96
2023-03-06T01:08:47.514Z,96.67
2023-03-06T01:11:17.550Z,96.45
2023-03-06T01:13:47.413Z,97.14
2023-03-06T01:16:20.216Z,96.92
2023-03-06T01:18:53.125Z,96.69
2023-03-06T01:21:23.249Z,96.93
2023-03-06T01:23:52.962Z,96.56
2023-03-06T01:26:23.607Z,96.90
2023-03-06T01:28:53.090Z,97.24
2023-03-06T01:31:25.116Z,97.97
2023-03-06T01:33:55.018Z,98.30
2023-03-06T01:36:25.019Z,97.53
2023-03-06T01:38:54.581Z,97.94
2023-03-06T01:41:24.648Z,98.23
2023-03-06T01:43:54.511Z,98.18
2023-03-06T01:46:27.644Z,97.19
2023-03-06T01:48:58.466Z,97.39
2023-03-06T01:51:31.611Z,97.45
2023-03-06T01:54:02.970Z,97.31
2023-03-06T01:56:33.672Z,97.38
2023-03-06T01:59:03.707Z,97.06
2023-03-06T02:01:35.562Z,96.85
2023-03-06T02:04:05.422Z,95.99
2023-03-06T02:06:37.387Z,95.78
2023-03-06T02:09:07.855Z,96.31
2023-03-06T02:11:38.000Z,95.78
2023-03-06T02:14:07.704Z,95.81
2023-03-06T02:16:39.417Z,95.67
2023-03-06T02:19:10.646Z,95.65
2023-03-06T02:21:40.934Z,95.17
2023-03-06T02:24:18.075Z,95.42
2023-03-06T02:26:49.957Z,96.16
2023-03-06T02:29:23.166Z,95.89
2023-03-06T02:31:53.350Z,96.00
2023-03-06T02:34:41.435Z,96.57
2023-03-06T02:37:12.298Z,96.98
2023-03-06T02:39:44.786Z,96.96
2023-03-06T02:42:20.286Z,96.60
2023-03-06T02:44:50.335Z,96.48
2023-03-06T02:47:20.417Z,96.51
2023-03-06T02:49:50.327Z,96.54
2023-03-06T02:52:21.181Z,96.15
2023-03-06T02:54:50.972Z,96.64
2023-03-06T02:57:22.678Z,95.79
2023-03-06T02:59:52.523Z,95.73
2023-03-06T03:02:22.774Z,96.01
2023-03-06T03:04:52.532Z,95.42
2023-03-06T03:07:22.717Z,95.58
2023-03-06T03:09:52.372Z,96.19
2023-03-06T03:12:24.138Z,95.90
2023-03-06T03:14:53.728Z,96.46
2023-03-06T03:17:23.999Z,96.61
2023-03-06T03:19:54.711Z,96.35
2023-03-06T03:22:25.607Z,96.69
2023-03-06T03:24:55.382Z,96.43
2023-03-06T03:27:27.013Z,95.79
2023-03-06T03:29:58.432Z,95.41
2023-03-06T03:32:29.313Z,95.77
2023-03-06T03:34:59.301Z,95.98
2023-03-06T03:37:29.682Z,95.94
2023-03-06T03:39:59.514Z,95.20
2023-03-06T03:42:31.131Z,95.92
2023-03-06T03:45:00.957Z,95.24
2023-03-06T03:47:31.075Z,95.82
2023-03-06T03:50:01.178Z,95.46
2023-03-06T03:52:31.399Z,95.26
2023-03-06T03:55:01.263Z,95.42
2023-03-06T03:57:33.211Z,95.71
2023-03-06T04:00:04.493Z,95.56
2023-03-06T04:02:44.029Z,95.81
2023-03-06T04:05:25.627Z,95.19
2023-03-06T04:07:56.289Z,95.24
2023-03-06T04:10:26.027Z,95.72
2023-03-06T04:12:57.657Z,95.00
2023-03-06T04:15:30.688Z,95.18
2023-03-06T04:18:02.899Z,94.72
2023-03-06T04:20:32.831Z,94.87
2023-03-06T04:23:03.777Z,95.90
2023-03-06T04:25:34.476Z,95.54
2023-03-06T04:28:08.666Z,95.57
2023-03-06T04:30:38.465Z,96.49
2023-03-06T04:33:08.621Z,96.42
2023-03-06T04:35:38.359Z,96.10
2023-03-06T04:38:14.213Z,96.79
2023-03-06T04:40:45.167Z,97.39
2023-03-06T04:43:17.042Z,97.93
2023-03-06T04:45:46.858Z,98.04
2023-03-06T04:48:18.297Z,99.35
2023-03-06T04:50:48.272Z,99.66
2023-03-06T04:53:19.985Z,99.72
2023-03-06T04:55:49.873Z,100.00
2023-03-06T04:58:21.504Z,100.00
2023-03-06T05:00:51.084Z,100.00
2023-03-06T05:03:21.063Z,100.00
2023-03-06T05:05:50.961Z,100.00
2023-03-06T05:08:21.203Z,100.00
2023-03-06T05:10:54.991Z,100.00
2023-03-06T05:13:27.174Z,100.00
2023-03-06T05:15:57.107Z,100.00
2023-03-06T05:18:28.409Z,100.00
2023-03-06T05:21:00.298Z,100.00
2023-03-06T05:23:30.922Z,100.00
2023-03-06T05:26:00.926Z,100.00
2023-03-06T05:28:32.586Z,100.00
2023-03-06T05:31:03.489Z,100.00
2023-03-06T05:33:33.918Z,100.00
2023-03-06T05:36:04.129Z,100.00
2023-03-06T05:38:34.239Z,100.00
2023-03-06T05:41:04.076Z,100.00
2023-03-06T05:43:35.840Z,100.00
2023-03-06T05:46:07.249Z,100.00
2023-03-06T05:48:37.882Z,100.00
2023-03-06T05:51:07.954Z,100.00
2023-03-06T05:53:38.060Z,100.00
2023-03-06T05:56:09.894Z,100.00
2023-03-06T05:58:41.877Z,100.00
2023-03-06T06:01:11.930Z,100.00
2023-03-06T06:03:42.372Z,100.00
2023-03-06T06:06:13.168Z,100.00
2023-03-06T06:08:43.617Z,99.64
2023-03-06T06:11:13.735Z,99.68
2023-03-06T06:13:45.319Z,98.52
2023-03-06T06:16:16.778Z,99.08
2023-03-06T06:18:47.422Z,99.06
2023-03-06T06:21:17.459Z,99.06
2023-03-06T06:23:47.737Z,98.71
2023-03-06T06:26:17.294Z,97.55
2023-03-06T06:28:48.688Z,97.49
2023-03-06T06:31:18.433Z,97.78
2023-03-06T06:33:48.459Z,97.40
2023-03-06T06:36:19.782Z,97.03
2023-03-06T06:38:50.222Z,96.33
2023-03-06T06:44:14.881Z,95.63
2023-03-06T06:49:36.082Z,94.89
2023-03-06T06:52:06.268Z,93.95
2023-03-06T06:54:36.401Z,94.23
2023-03-06T06:57:06.630Z,93.92
2023-03-06T06:59:38.007Z,93.24
2023-03-06T07:02:07.745Z,92.70
2023-03-06T07:04:37.870Z,91.93
2023-03-06T07:07:07.701Z,91.94
2023-03-06T07:09:37.570Z,91.10
2023-03-06T07:12:07.502Z,90.53
2023-03-06T07:14:39.731Z,90.29
2023-03-06T07:17:09.537Z,89.67
2023-03-06T07:19:39.898Z,89.47
2023-03-06T07:22:09.990Z,88.70
2023-03-06T07:24:40.017Z,88.35
2023-03-06T07:27:09.713Z,87.16
2023-03-06T07:29:41.241Z,86.62
2023-03-06T07:32:11.031Z,84.75
2023-03-06T07:34:41.033Z,78.49
2023-03-06T07:37:10.732Z,74.57
2023-03-06T07:39:40.823Z,72.58
2023-03-06T07:42:11.575Z,70.43
2023-03-06T07:44:50.213Z,68.46
2023-03-06T07:47:20.985Z,68.40
2023-03-06T07:49:51.034Z,67.37
2023-03-06T07:52:20.746Z,65.99
2023-03-06T07:54:50.975Z,63.24
2023-03-06T07:57:20.727Z,62.95
2023-03-06T07:59:52.217Z,61.43
2023-03-06T08:02:21.875Z,60.63
2023-03-06T08:04:53.831Z,59.60
2023-03-06T08:07:24.336Z,57.97
2023-03-06T08:09:54.269Z,57.00
2023-03-06T08:12:23.888Z,55.46
2023-03-06T08:14:55.332Z,54.87
2023-03-06T08:17:25.011Z,54.70
2023-03-06T08:19:55.208Z,54.23
2023-03-06T08:22:25.163Z,54.25
2023-03-06T08:24:56.061Z,51.75
2023-03-06T08:27:25.717Z,51.29
2023-03-06T08:29:57.120Z,52.08
2023-03-06T08:32:26.844Z,52.63
2023-03-06T08:34:56.993Z,52.37
2023-03-06T08:37:26.585Z,52.52
2023-03-06T08:39:56.590Z,51.38
2023-03-06T08:42:26.307Z,52.51
2023-03-06T08:44:57.668Z,50.76
2023-03-06T08:47:27.310Z,49.86
2023-03-06T08:49:58.814Z,47.79
2023-03-06T08:52:29.082Z,48.23
2023-03-06T08:55:03.735Z,47.76
2023-03-06T08:57:33.606Z,47.53
2023-03-06T09:00:09.287Z,46.44
2023-03-06T09:02:39.014Z,47.86
2023-03-06T09:05:10.040Z,48.55
2023-03-06T09:07:40.232Z,46.49
2023-03-06T09:10:14.495Z,46.99
2023-03-06T09:12:50.753Z,47.68
2023-03-06T09:15:23.867Z,47.16
2023-03-06T09:17:54.507Z,46.30
2023-03-06T09:20:24.531Z,48.32
2023-03-06T09:22:54.262Z,50.21
2023-03-06T09:25:25.091Z,50.76
2023-03-06T09:28:10.207Z,51.67
2023-03-06T09:30:43.189Z,53.64
2023-03-06T09:33:12.954Z,52.62
2023-03-06T09:35:44.860Z,53.68
2023-03-06T09:38:14.616Z,55.29
2023-03-06T09:40:53.925Z,56.65
2023-03-06T09:43:27.711Z,55.54
2023-03-06T09:45:59.699Z,56.81
2023-03-06T09:48:35.051Z,57.65
2023-03-06T09:51:08.551Z,57.33
2023-03-06T09:53:43.044Z,57.81
2023-03-06T09:56:17.429Z,57.19
2023-03-06T09:58:49.382Z,55.41
2023-03-06T10:01:22.550Z,55.32
2023-03-06T10:03:55.887Z,54.31
2023-03-06T10:06:30.158Z,55.29
2023-03-06T10:09:03.018Z,55.70
2023-03-06T10:11:37.178Z,56.57
2023-03-06T10:14:15.861Z,56.27
2023-03-06T10:16:47.608Z,55.94
2023-03-06T10:19:18.111Z,57.30
2023-03-06T10:21:52.901Z,56.89
2023-03-06T10:24:31.946Z,55.80
2023-03-06T10:27:06.397Z,55.35
2023-03-06T10:29:43.621Z,54.08
2023-03-06T10:32:22.496Z,53.68
2023-03-06T10:34:53.556Z,54.29
2023-03-06T10:37:24.178Z,53.70
2023-03-06T10:39:56.575Z,52.86
2023-03-06T10:42:28.659Z,54.47
2023-03-06T10:45:10.033Z,55.76
2023-03-06T10:47:42.301Z,56.55
2023-03-06T10:50:22.289Z,57.53
2023-03-06T10:53:00.855Z,56.96
2023-03-06T10:55:31.721Z,57.17
2023-03-06T10:58:18.176Z,57.11
2023-03-06T11:00:48.317Z,57.43
2023-03-06T11:03:22.015Z,56.86
2023-03-06T11:05:55.901Z,55.51
2023-03-06T11:08:27.243Z,52.16
2023-03-06T11:10:58.786Z,52.88
2023-03-06T11:13:30.614Z,52.38
2023-03-06T11:16:02.627Z,52.99
2023-03-06T11:18:36.869Z,53.19
2023-03-06T11:21:09.451Z,53.83
2023-03-06T11:23:41.333Z,54.12
2023-03-06T11:26:38.580Z,53.51
2023-03-06T11:29:23.588Z,53.91
2023-03-06T11:31:54.446Z,53.24
2023-03-06T11:34:32.338Z,51.71
2023-03-06T11:37:04.898Z,51.88
2023-03-06T11:39:38.047Z,51.43
2023-03-06T11:42:14.657Z,50.29
2023-03-06T11:44:50.911Z,50.50
2023-03-06T11:47:24.238Z,50.48
2023-03-06T11:50:05.797Z,50.28
2023-03-06T11:52:39.637Z,51.47
2023-03-06T11:55:14.618Z,53.61
2023-03-06T11:57:49.356Z,54.54
2023-03-06T12:00:24.561Z,53.82
2023-03-06T12:03:12.449Z,53.85
2023-03-06T12:05:48.211Z,54.21
2023-03-06T12:08:36.736Z,53.43
2023-03-06T12:11:13.156Z,54.94
2023-03-06T12:14:04.594Z,55.63
2023-03-06T12:17:01.203Z,54.60
2023-03-06T12:19:34.711Z,54.06
2023-03-06T12:22:14.861Z,54.01
2023-03-06T12:24:57.515Z,53.20
2023-03-06T12:27:33.203Z,54.18
2023-03-06T12:30:15.171Z,54.23
2023-03-06T12:32:51.458Z,54.63
2023-03-06T12:35:39.317Z,53.70
2023-03-06T12:38:22.731Z,53.57
2023-03-06T12:40:59.960Z,52.84
2023-03-06T12:43:44.851Z,52.84
2023-03-06T12:46:15.632Z,51.74
2023-03-06T12:48:48.698Z,50.19
2023-03-06T12:51:19.595Z,50.00
2023-03-06T12:53:51.915Z,50.91
2023-03-06T12:56:22.485Z,51.30
2023-03-06T12:58:53.726Z,51.85
2023-03-06T13:01:42.507Z,52.37
2023-03-06T13:04:27.213Z,53.42
2023-03-06T13:07:03.287Z,52.46
2023-03-06T13:09:39.435Z,51.56
2023-03-06T13:12:27.028Z,50.66
2023-03-06T13:15:01.219Z,51.78
2023-03-06T13:17:35.905Z,52.25
2023-03-06T13:20:28.521Z,50.26
2023-03-06T13:22:58.755Z,50.45
2023-03-06T13:25:39.704Z,50.78
2023-03-06T13:28:23.796Z,49.83
2023-03-06T13:30:54.109Z,50.29
2023-03-06T13:33:42.193Z,50.64
2023-03-06T13:36:22.520Z,49.72
2023-03-06T13:39:02.207Z,51.62
2023-03-06T13:41:50.305Z,49.80
2023-03-06T13:44:51.286Z,49.41
2023-03-06T13:50:37.880Z,48.57
2023-03-06T13:53:27.791Z,50.26
2023-03-06T13:56:04.048Z,48.36
2023-03-06T13:58:41.580Z,48.14
2023-03-06T14:01:22.185Z,48.34
2023-03-06T14:04:19.069Z,48.99
2023-03-06T14:06:54.900Z,48.31
2023-03-06T14:09:26.899Z,48.18
2023-03-06T14:11:59.267Z,49.03
2023-03-06T14:14:37.428Z,48.66
2023-03-06T14:17:07.167Z,48.75
2023-03-06T14:19:40.276Z,48.73
2023-03-06T14:22:18.446Z,48.89
2023-03-06T14:24:54.868Z,48.62
2023-03-06T14:27:39.343Z,48.78
2023-03-06T14:30:10.202Z,49.15
2023-03-06T14:32:41.816Z,49.42
2023-03-06T14:35:23.412Z,48.51
2023-03-06T14:37:57.012Z,47.99
2023-03-06T14:40:30.336Z,49.60
2023-03-06T14:43:13.295Z,48.94
2023-03-06T14:45:51.270Z,48.54
2023-03-06T14:48:21.062Z,49.53
2023-03-06T14:50:52.894Z,48.83
2023-03-06T14:53:26.660Z,51.66
2023-03-06T14:55:58.377Z,57.66
2023-03-06T14:58:30.571Z,61.60
2023-03-06T15:01:05.768Z,65.45
2023-03-06T15:03:43.904Z,68.62
2023-03-06T15:06:17.629Z,71.38
2023-03-06T15:08:50.512Z,72.91
2023-03-06T15:11:20.749Z,74.09
2023-03-06T15:14:01.530Z,76.44
2023-03-06T15:16:33.853Z,77.62
2023-03-06T15:19:04.624Z,77.70
2023-03-06T15:21:37.107Z,78.14
2023-03-06T15:24:21.617Z,79.24
2023-03-06T15:26:56.300Z,79.92
2023-03-06T15:29:26.238Z,79.75
2023-03-06T15:32:15.414Z,80.17
2023-03-06T15:34:47.685Z,80.59
2023-03-06T15:37:21.555Z,82.19
2023-03-06T15:40:04.570Z,83.43
2023-03-06T15:42:37.929Z,86.09
2023-03-06T15:45:16.937Z,87.42
2023-03-06T15:47:48.306Z,89.38
2023-03-06T15:50:19.328Z,90.74
2023-03-06T15:52:50.015Z,92.53
2023-03-06T15:55:21.276Z,95.39
2023-03-06T15:57:54.543Z,95.67
2023-03-06T16:00:28.368Z,96.68
2023-03-06T16:02:59.871Z,96.10
2023-03-06T16:05:30.399Z,96.92
2023-03-06T16:08:00.662Z,97.51
2023-03-06T16:10:32.193Z,97.18
2023-03-06T16:13:06.472Z,97.50
2023-03-06T16:15:41.824Z,98.21
2023-03-06T16:18:12.251Z,98.44
2023-03-06T16:20:42.439Z,98.99
2023-03-06T16:23:12.582Z,98.66
2023-03-06T16:25:42.909Z,99.24
2023-03-06T16:28:15.777Z,100.00
2023-03-06T16:30:46.225Z,100.00
2023-03-06T16:33:17.297Z,100.00
2023-03-06T16:35:47.669Z,100.00
2023-03-06T16:38:18.637Z,100.00
2023-03-06T16:40:48.447Z,100.00
2023-03-06T16:43:19.741Z,100.00
2023-03-06T16:45:49.466Z,100.00
2023-03-06T16:48:19.587Z,100.00
2023-03-06T16:50:49.301Z,100.00
2023-03-06T16:53:19.500Z,100.00
2023-03-06T16:55:49.688Z,100.00
2023-03-06T16:58:21.678Z,100.00
2023-03-06T17:00:51.545Z,100.00
2023-03-06T17:03:21.877Z,100.00
2023-03-06T17:05:53.286Z,100.00
2023-03-06T17:08:23.898Z,100.00
2023-03-06T17:10:54.094Z,100.00
2023-03-06T17:13:25.960Z,100.00
2023-03-06T17:15:59.876Z,100.00
2023-03-06T17:18:30.979Z,100.00
2023-03-06T17:21:00.942Z,100.00
2023-03-06T17:23:31.220Z,100.00
2023-03-06T17:26:05.327Z,100.00
2023-03-06T17:28:37.418Z,100.00
2023-03-06T17:31:13.044Z,100.00
2023-03-06T17:33:43.160Z,100.00
2023-03-06T17:36:14.725Z,100.00
2023-03-06T17:38:45.030Z,100.00
2023-03-06T17:41:14.758Z,100.00
2023-03-06T17:43:46.276Z,100.00
2023-03-06T17:46:15.983Z,100.00
2023-03-06T17:48:46.670Z,100.00
2023-03-06T17:51:16.457Z,100.00
2023-03-06T17:53:46.492Z,100.00
2023-03-06T17:56:16.996Z,100.00
2023-03-06T17:58:48.454Z,100.00
2023-03-06T18:01:19.458Z,100.00
2023-03-06T18:03:50.484Z,100.00
2023-03-06T18:06:22.646Z,100.00
2023-03-06T18:08:53.114Z,100.00
2023-03-06T18:11:23.600Z,100.00
2023-03-06T18:13:55.432Z,100.00
2023-03-06T18:16:26.672Z,100.00
2023-03-06T18:18:57.768Z,100.00
2023-03-06T18:21:27.725Z,100.00
2023-03-06T18:24:00.148Z,100.00
2023-03-06T18:26:30.804Z,100.00
2023-03-06T18:29:04.701Z,100.00
2023-03-06T18:31:35.646Z,100.00
2023-03-06T18:34:06.815Z,100.00
2023-03-06T18:36:37.378Z,100.00
2023-03-06T18:39:09.022Z,100.00
2023-03-06T18:41:38.974Z,100.00
2023-03-06T18:44:10.556Z,100.00
2023-03-06T18:46:40.339Z,100.00
2023-03-06T18:49:10.818Z,100.00
2023-03-06T18:51:41.226Z,100.00
2023-03-06T18:54:12.057Z,100.00
2023-03-06T18:56:44.421Z,100.00
2023-03-06T18:59:18.873Z,100.00
2023-03-06T19:01:49.301Z,100.00
2023-03-06T19:04:20.267Z,100.00
2023-03-06T19:06:50.172Z,100.00
2023-03-06T19:09:20.262Z,100.00
2023-03-06T19:11:49.872Z,100.00
2023-03-06T19:14:21.834Z,100.00
2023-03-06T19:16:51.983Z,100.00
2023-03-06T19:19:26.473Z,100.00
2023-03-06T19:21:58.571Z,100.00
2023-03-06T19:24:28.817Z,100.00
2023-03-06T19:26:58.588Z,100.00
2023-03-06T19:29:30.224Z,100.00
2023-03-06T19:32:00.038Z,100.00
2023-03-06T19:34:30.555Z,100.00
2023-03-06T19:37:00.287Z,100.00
2023-03-06T19:39:30.354Z,100.00
2023-03-06T19:42:00.097Z,100.00
2023-03-06T19:44:31.725Z,100.00
2023-03-06T19:47:01.405Z,100.00
2023-03-06T19:49:31.502Z,100.00
2023-03-06T19:52:01.275Z,100.00
2023-03-06T19:54:32.533Z,100.00
2023-03-06T19:57:02.900Z,100.00
2023-03-06T19:59:34.569Z,100.00
2023-03-06T20:02:04.450Z,100.00
2023-03-06T20:04:34.806Z,100.00
2023-03-06T20:07:05.473Z,100.00
2023-03-06T20:09:35.871Z,100.00
2023-03-06T20:12:08.159Z,100.00
2023-03-06T20:14:39.901Z,100.00
2023-03-06T20:17:10.122Z,100.00
2023-03-06T20:19:40.488Z,100.00
2023-03-06T20:22:10.230Z,100.00
2023-03-06T20:24:40.300Z,100.00
2023-03-06T20:27:10.498Z,100.00
2023-03-06T20:29:45.051Z,100.00
2023-03-06T20:32:15.034Z,100.00
2023-03-06T20:34:45.586Z,100.00
2023-03-06T20:37:15.636Z,100.00
2023-03-06T20:39:45.852Z,100.00
2023-03-06T20:42:15.776Z,100.00
2023-03-06T20:44:47.226Z,100.00
2023-03-06T20:47:16.951Z,100.00
2023-03-06T20:49:47.002Z,100.00
2023-03-06T20:52:16.696Z,100.00
2023-03-06T20:54:46.853Z,100.00
2023-03-06T20:57:16.512Z,100.00
2023-03-06T20:59:48.180Z,100.00
2023-03-06T21:02:18.232Z,100.00
2023-03-06T21:04:48.692Z,100.00
2023-03-06T21:07:20.534Z,100.00
2023-03-06T21:09:52.582Z,100.00
2023-03-06T21:12:22.416Z,100.00
2023-03-06T21:14:54.242Z,100.00
2023-03-06T21:17:24.702Z,100.00
2023-03-06T21:19:54.844Z,100.00
2023-03-06T21:22:24.625Z,100.00
2023-03-06T21:24:54.985Z,100.00
2023-03-06T21:27:24.885Z,100.00
2023-03-06T21:29:56.567Z,100.00
2023-03-06T21:32:26.568Z,100.00
2023-03-06T21:34:57.046Z,100.00
2023-03-06T21:37:26.908Z,100.00
2023-03-06T21:40:00.058Z,100.00
2023-03-06T21:42:29.720Z,100.00
2023-03-06T21:45:01.370Z,100.00
2023-03-06T21:47:37.979Z,100.00
2023-03-06T21:50:08.845Z,100.00
2023-03-06T21:52:39.607Z,100.00
2023-03-06T21:55:10.726Z,100.00
2023-03-06T21:57:40.547Z,100.00
2023-03-06T22:00:13.605Z,100.00
2023-03-06T22:02:44.513Z,100.00
2023-03-06T22:05:15.348Z,100.00
2023-03-06T22:07:45.389Z,100.00
2023-03-06T22:10:16.227Z,100.00
2023-03-06T22:12:47.240Z,100.00
2023-03-06T22:15:20.796Z,100.00
2023-03-06T22:17:50.666Z,100.00
2023-03-06T22:20:20.938Z,100.00
2023-03-06T22:22:50.753Z,100.00
2023-03-06T22:25:21.126Z,100.00
2023-03-06T22:27:50.921Z,100.00
2023-03-06T22:30:22.574Z,100.00
2023-03-06T22:32:53.814Z,100.00
2023-03-06T22:35:24.027Z,100.00
2023-03-06T22:37:53.712Z,100.00
2023-03-06T22:40:23.812Z,100.00
2023-03-06T22:42:53.374Z,100.00
2023-03-06T22:45:24.830Z,100.00
2023-03-06T22:48:02.319Z,100.00
2023-03-06T22:50:39.424Z,100.00
2023-03-06T22:53:09.222Z,100.00
2023-03-06T22:55:39.642Z,100.00
2023-03-06T22:58:09.568Z,100.00
2023-03-06T23:00:41.170Z,100.00
2023-03-06T23:03:10.752Z,100.00
2023-03-06T23:05:42.087Z,100.00
2023-03-06T23:08:11.875Z,100.00
2023-03-06T23:10:42.241Z,100.00
2023-03-06T23:13:30.713Z,100.00
2023-03-06T23:16:20.509Z,100.00
2023-03-06T23:19:08.976Z,100.00
2023-03-06T23:21:57.501Z,100.00
2023-03-06T23:24:45.933Z,100.00
2023-03-06T23:27:17.285Z,100.00
2023-03-06T23:29:46.941Z,100.00
2023-03-06T23:32:18.689Z,100.00
2023-03-06T23:34:49.619Z,100.00
2023-03-06T23:37:19.618Z,100.00
2023-03-06T23:39:49.707Z,100.00
2023-03-06T23:42:20.308Z,100.00
2023-03-06T23:44:50.052Z,100.00
2023-03-06T23:47:21.632Z,100.00
2023-03-06T23:49:51.459Z,100.00
2023-03-06T23:52:21.587Z,100.00
2023-03-06T23:54:51.482Z,100.00
2023-03-06T23:57:21.535Z,100.00
2023-03-06T23:59:51.208Z,100.00
